Adventure Cat — WBC3205 — position and weather

sailwx.info

Track history (hours):
 
Tides and Currents Weather Stations Pressure Air Temp Water Temp Dewpoint Dewpoint Depression Visibility Wind Speed Wind Dir Waves Ship Positions

Adventure Cat

Owner: ADVENTURE CAT INC, NAPA, CA. More information available from US FCC via Universal Licensing System and Coast Guard Vessel Documentation Center.

Last reported at 2017-Oct-20 01:55 UTC. Time now 2017-Oct-20 08:53 UTC.
Position N 37°49' W 122°25'.

Length 17 m; draft 2 m.

Type: Sailing vessel. MMSI: 367145450.

Date/timePositionNaut miles runAvg speedWind from/ knotsBaromVisibWave heightAir tempDewpointWater temp
2017-Oct-20 01:55N 37°49' W 122°25'2 4.6
2017-Oct-20 01:30N 37°49' W 122°27'1 2.5
2017-Oct-20 01:00N 37°50' W 122°28'3 4.1
2017-Oct-20 00:17N 37°49' W 122°25'0 0.0
2017-Oct-19 23:58N 37°49' W 122°25'0 0.0
2017-Oct-19 23:30N 37°49' W 122°25'3 5.5
2017-Oct-19 23:00N 37°49' W 122°28'2 3.1
2017-Oct-19 22:30N 37°50' W 122°27'2 4.5
2017-Oct-19 21:59N 37°49' W 122°25'0 0.4
2017-Oct-19 21:30N 37°49' W 122°25'2 4.7
2017-Oct-19 21:00N 37°49' W 122°27'0 0.5
2017-Oct-19 20:30N 37°50' W 122°28'3 0.2
2017-Oct-19 03:24N 37°49' W 122°24'2 4.9
2017-Oct-19 03:00N 37°47' W 122°23'1 2.2
2017-Oct-19 02:30N 37°48' W 122°23'3 5.3
2017-Oct-19 02:00N 37°49' W 122°27'2 3.4
2017-Oct-19 01:30N 37°49' W 122°29'2 3.9
2017-Oct-19 00:59N 37°50' W 122°26'2 1.3
2017-Oct-18 23:27N 37°49' W 122°25'2 4.5
2017-Oct-18 23:00N 37°49' W 122°27'1 2.3
2017-Oct-18 22:30N 37°50' W 122°28'3 2.6
2017-Oct-18 21:23N 37°49' W 122°25'2 4.4
2017-Oct-18 21:00N 37°50' W 122°27'1 2.3
2017-Oct-18 20:30N 37°49' W 122°28'2 0.1
2017-Oct-17 17:41N 37°49' W 122°25'0 2.3
2017-Oct-17 17:30N 37°49' W 122°24'0 0.8
2017-Oct-17 17:01N 37°49' W 122°25'0 0.0
2017-Oct-17 16:30N 37°49' W 122°25'0 0.0
2017-Oct-17 16:00N 37°49' W 122°25'0 0.0
2017-Oct-15 23:28N 37°49' W 122°25'2 4.1
2017-Oct-15 23:00N 37°49' W 122°27'1 1.9
2017-Oct-15 22:30N 37°49' W 122°28'3 5.2
2017-Oct-15 22:00N 37°49' W 122°25'0 0.0
2017-Oct-15 21:30N 37°49' W 122°25'2 5.0
2017-Oct-15 21:00N 37°50' W 122°28'0 0.5
2017-Oct-15 20:30N 37°50' W 122°28'2 1.5
2017-Oct-15 18:55N 37°49' W 122°25'2 4.5
2017-Oct-15 18:30N 37°49' W 122°27'1 1.3
2017-Oct-15 18:00N 37°49' W 122°28'2 4.0
2017-Oct-15 17:30N 37°49' W 122°25'1 0.0
2017-Oct-15 01:56N 37°49' W 122°25'3 6.2
2017-Oct-15 01:30N 37°50' W 122°28'1 1.8
2017-Oct-15 01:00N 37°50' W 122°27'2 0.9
2017-Oct-14 22:52N 37°49' W 122°24'1 3.7
2017-Oct-14 22:30N 37°50' W 122°26'1 2.9
2017-Oct-14 22:00N 37°50' W 122°27'2 3.4
2017-Oct-14 21:30N 37°49' W 122°29'1 2.6
2017-Oct-14 21:00N 37°50' W 122°28'2 3.3
2017-Oct-14 20:30N 37°49' W 122°26'1 1.4
2017-Oct-14 19:38N 37°49' W 122°25'0 0.1
2017-Oct-14 18:03N 37°49' W 122°25'0 7.4
2017-Oct-14 18:00N 37°49' W 122°25'2 4.8
2017-Oct-14 17:30N 37°49' W 122°28'1 2.0
2017-Oct-14 17:00N 37°49' W 122°29'4 0.3
2017-Oct-14 01:49N 37°49' W 122°25'2 6.4
2017-Oct-14 01:30N 37°49' W 122°27'1 2.5
2017-Oct-14 01:00N 37°50' W 122°28'3 2.0
2017-Oct-13 23:22N 37°49' W 122°25'3 7.6
2017-Oct-13 23:00N 37°49' W 122°28'1 2.2
2017-Oct-13 22:30N 37°50' W 122°27'3 2.8
2017-Oct-13 21:32N 37°49' W 122°25'0 2.2
2017-Oct-13 21:30N 37°49' W 122°25'3 6.5
2017-Oct-13 21:00N 37°49' W 122°29'1 2.5
2017-Oct-13 20:30N 37°51' W 122°28'3 6.3
2017-Oct-13 20:00N 37°49' W 122°25'0 0.0
2017-Oct-13 19:30N 37°49' W 122°25'0 0.0
2017-Oct-13 19:00N 37°49' W 122°25'0 0.0
2017-Oct-12 18:55N 37°49' W 122°24'2 3.9
2017-Oct-12 18:30N 37°48' W 122°23'1 2.8
2017-Oct-12 18:00N 37°49' W 122°24'1 3.0
2017-Oct-12 17:30N 37°49' W 122°26'1 1.9
2017-Oct-12 16:53N 37°49' W 122°25'0 0.0
2017-Oct-12 16:30N 37°49' W 122°25'0 0.0
2017-Oct-12 02:48N 37°49' W 122°25'0 0.0
2017-Oct-12 02:30N 37°49' W 122°25'2 3.5
2017-Oct-12 02:01N 37°50' W 122°26'2 3.7
2017-Oct-12 01:31N 37°49' W 122°29'1 2.8
2017-Oct-12 01:01N 37°49' W 122°27'2 3.8
2017-Oct-12 00:30N 37°49' W 122°25'0 0.0
2017-Oct-12 00:01N 37°49' W 122°25'0 0.0
2017-Oct-11 23:30N 37°49' W 122°25'2 4.0
2017-Oct-11 23:01N 37°49' W 122°27'1 1.7
2017-Oct-11 22:31N 37°50' W 122°27'2 4.7
2017-Oct-11 21:59N 37°49' W 122°25'0 0.0
2017-Oct-11 21:27N 37°49' W 122°25'2 4.8
2017-Oct-11 21:01N 37°49' W 122°27'1 1.5
2017-Oct-11 20:30N 37°50' W 122°27'2 4.9
2017-Oct-11 20:00N 37°49' W 122°25'0 0.1
2017-Oct-11 19:28N 37°49' W 122°25'0 0.0
2017-Oct-11 18:53N 37°49' W 122°25'  
Track history (hours):
 
Tides and Currents Weather Stations Pressure Air Temp Water Temp Dewpoint Dewpoint Depression Visibility Wind Speed Wind Dir Waves Ship Positions

Adventure Cat

Owner: ADVENTURE CAT INC, NAPA, CA. More information available from US FCC via Universal Licensing System and Coast Guard Vessel Documentation Center.

Last reported at 2017-Oct-20 01:55 UTC. Time now 2017-Oct-20 08:53 UTC.
Position N 37°49' W 122°25'.

Length 17 m; draft 2 m.

Type: Sailing vessel. MMSI: 367145450.

Date/timePositionNaut miles runAvg speedWind from/ knotsBaromVisibWave heightAir tempDewpointWater temp
2017-Oct-20 01:55N 37°49' W 122°25'2 4.6
2017-Oct-20 01:30N 37°49' W 122°27'1 2.5
2017-Oct-20 01:00N 37°50' W 122°28'3 4.1
2017-Oct-20 00:17N 37°49' W 122°25'0 0.0
2017-Oct-19 23:58N 37°49' W 122°25'0 0.0
2017-Oct-19 23:30N 37°49' W 122°25'3 5.5
2017-Oct-19 23:00N 37°49' W 122°28'2 3.1
2017-Oct-19 22:30N 37°50' W 122°27'2 4.5
2017-Oct-19 21:59N 37°49' W 122°25'0 0.4
2017-Oct-19 21:30N 37°49' W 122°25'2 4.7
2017-Oct-19 21:00N 37°49' W 122°27'0 0.5
2017-Oct-19 20:30N 37°50' W 122°28'3 0.2
2017-Oct-19 03:24N 37°49' W 122°24'2 4.9
2017-Oct-19 03:00N 37°47' W 122°23'1 2.2
2017-Oct-19 02:30N 37°48' W 122°23'3 5.3
2017-Oct-19 02:00N 37°49' W 122°27'2 3.4
2017-Oct-19 01:30N 37°49' W 122°29'2 3.9
2017-Oct-19 00:59N 37°50' W 122°26'2 1.3
2017-Oct-18 23:27N 37°49' W 122°25'2 4.5
2017-Oct-18 23:00N 37°49' W 122°27'1 2.3
2017-Oct-18 22:30N 37°50' W 122°28'3 2.6
2017-Oct-18 21:23N 37°49' W 122°25'2 4.4
2017-Oct-18 21:00N 37°50' W 122°27'1 2.3
2017-Oct-18 20:30N 37°49' W 122°28'2 0.1
2017-Oct-17 17:41N 37°49' W 122°25'0 2.3
2017-Oct-17 17:30N 37°49' W 122°24'0 0.8
2017-Oct-17 17:01N 37°49' W 122°25'0 0.0
2017-Oct-17 16:30N 37°49' W 122°25'0 0.0
2017-Oct-17 16:00N 37°49' W 122°25'0 0.0
2017-Oct-15 23:28N 37°49' W 122°25'2 4.1
2017-Oct-15 23:00N 37°49' W 122°27'1 1.9
2017-Oct-15 22:30N 37°49' W 122°28'3 5.2
2017-Oct-15 22:00N 37°49' W 122°25'0 0.0
2017-Oct-15 21:30N 37°49' W 122°25'2 5.0
2017-Oct-15 21:00N 37°50' W 122°28'0 0.5
2017-Oct-15 20:30N 37°50' W 122°28'2 1.5
2017-Oct-15 18:55N 37°49' W 122°25'2 4.5
2017-Oct-15 18:30N 37°49' W 122°27'1 1.3
2017-Oct-15 18:00N 37°49' W 122°28'2 4.0
2017-Oct-15 17:30N 37°49' W 122°25'1 0.0
2017-Oct-15 01:56N 37°49' W 122°25'3 6.2
2017-Oct-15 01:30N 37°50' W 122°28'1 1.8
2017-Oct-15 01:00N 37°50' W 122°27'2 0.9
2017-Oct-14 22:52N 37°49' W 122°24'1 3.7
2017-Oct-14 22:30N 37°50' W 122°26'1 2.9
2017-Oct-14 22:00N 37°50' W 122°27'2 3.4
2017-Oct-14 21:30N 37°49' W 122°29'1 2.6
2017-Oct-14 21:00N 37°50' W 122°28'2 3.3
2017-Oct-14 20:30N 37°49' W 122°26'1 1.4
2017-Oct-14 19:38N 37°49' W 122°25'0 0.1
2017-Oct-14 18:03N 37°49' W 122°25'0 7.4
2017-Oct-14 18:00N 37°49' W 122°25'2 4.8
2017-Oct-14 17:30N 37°49' W 122°28'1 2.0
2017-Oct-14 17:00N 37°49' W 122°29'4 0.3
2017-Oct-14 01:49N 37°49' W 122°25'2 6.4
2017-Oct-14 01:30N 37°49' W 122°27'1 2.5
2017-Oct-14 01:00N 37°50' W 122°28'3 2.0
2017-Oct-13 23:22N 37°49' W 122°25'3 7.6
2017-Oct-13 23:00N 37°49' W 122°28'1 2.2
2017-Oct-13 22:30N 37°50' W 122°27'3 2.8
2017-Oct-13 21:32N 37°49' W 122°25'0 2.2
2017-Oct-13 21:30N 37°49' W 122°25'3 6.5
2017-Oct-13 21:00N 37°49' W 122°29'1 2.5
2017-Oct-13 20:30N 37°51' W 122°28'3 6.3
2017-Oct-13 20:00N 37°49' W 122°25'0 0.0
2017-Oct-13 19:30N 37°49' W 122°25'0 0.0
2017-Oct-13 19:00N 37°49' W 122°25'0 0.0
2017-Oct-12 18:55N 37°49' W 122°24'2 3.9
2017-Oct-12 18:30N 37°48' W 122°23'1 2.8
2017-Oct-12 18:00N 37°49' W 122°24'1 3.0
2017-Oct-12 17:30N 37°49' W 122°26'1 1.9
2017-Oct-12 16:53N 37°49' W 122°25'0 0.0
2017-Oct-12 16:30N 37°49' W 122°25'0 0.0
2017-Oct-12 02:48N 37°49' W 122°25'0 0.0
2017-Oct-12 02:30N 37°49' W 122°25'2 3.5
2017-Oct-12 02:01N 37°50' W 122°26'2 3.7
2017-Oct-12 01:31N 37°49' W 122°29'1 2.8
2017-Oct-12 01:01N 37°49' W 122°27'2 3.8
2017-Oct-12 00:30N 37°49' W 122°25'0 0.0
2017-Oct-12 00:01N 37°49' W 122°25'0 0.0
2017-Oct-11 23:30N 37°49' W 122°25'2 4.0
2017-Oct-11 23:01N 37°49' W 122°27'1 1.7
2017-Oct-11 22:31N 37°50' W 122°27'2 4.7
2017-Oct-11 21:59N 37°49' W 122°25'0 0.0
2017-Oct-11 21:27N 37°49' W 122°25'2 4.8
2017-Oct-11 21:01N 37°49' W 122°27'1 1.5
2017-Oct-11 20:30N 37°50' W 122°27'2 4.9
2017-Oct-11 20:00N 37°49' W 122°25'0 0.1
2017-Oct-11 19:28N 37°49' W 122°25'0 0.0
2017-Oct-11 18:53N 37°49' W 122°25'  

Dump ship's entire track history